createdAt,value
2023-02-20T00:01:59.858Z,10.52
2023-02-20T00:04:26.506Z,10.52
2023-02-20T00:06:53.321Z,10.52
2023-02-20T00:09:20.179Z,10.53
2023-02-20T00:11:47.204Z,10.52
2023-02-20T00:14:14.381Z,10.50
2023-02-20T00:16:41.372Z,10.47
2023-02-20T00:19:08.038Z,10.49
2023-02-20T00:21:34.949Z,10.46
2023-02-20T00:24:02.487Z,10.44
2023-02-20T00:26:29.126Z,10.43
2023-02-20T00:28:55.914Z,10.43
2023-02-20T00:31:22.731Z,10.43
2023-02-20T00:33:49.447Z,10.46
2023-02-20T00:36:18.682Z,10.46
2023-02-20T00:38:45.864Z,10.44
2023-02-20T00:41:17.897Z,10.43
2023-02-20T00:43:45.047Z,10.45
2023-02-20T00:46:14.342Z,10.44
2023-02-20T00:48:41.274Z,10.41
2023-02-20T00:51:08.087Z,10.42
2023-02-20T00:53:34.820Z,10.41
2023-02-20T00:56:01.486Z,10.39
2023-02-20T00:58:28.373Z,10.41
2023-02-20T01:00:55.010Z,10.43
2023-02-20T01:03:21.631Z,10.46
2023-02-20T01:05:48.425Z,10.48
2023-02-20T01:08:15.112Z,10.47
2023-02-20T01:10:41.795Z,10.50
2023-02-20T01:13:08.700Z,10.49
2023-02-20T01:15:35.427Z,10.46
2023-02-20T01:18:02.079Z,10.49
2023-02-20T01:20:28.919Z,10.48
2023-02-20T01:22:55.561Z,10.46
2023-02-20T01:25:22.232Z,10.43
2023-02-20T01:27:49.027Z,10.39
2023-02-20T01:30:16.579Z,10.36
2023-02-20T01:32:43.266Z,10.33
2023-02-20T01:35:10.281Z,10.37
2023-02-20T01:37:37.272Z,10.44
2023-02-20T01:40:05.462Z,10.51
2023-02-20T01:42:34.220Z,10.53
2023-02-20T01:45:32.295Z,10.57
2023-02-20T01:47:59.391Z,10.63
2023-02-20T01:50:32.444Z,10.65
2023-02-20T01:53:06.990Z,10.62
2023-02-20T01:55:40.220Z,10.56
2023-02-20T01:58:12.676Z,10.54
2023-02-20T02:00:39.572Z,10.53
2023-02-20T02:03:12.406Z,10.55
2023-02-20T02:05:44.576Z,10.55
2023-02-20T02:08:14.037Z,10.54
2023-02-20T02:11:02.260Z,10.49
2023-02-20T02:13:34.179Z,10.49
2023-02-20T02:16:07.233Z,10.47
2023-02-20T02:18:42.890Z,10.47
2023-02-20T02:21:36.229Z,10.48
2023-02-20T02:24:09.085Z,10.51
2023-02-20T02:27:09.807Z,10.56
2023-02-20T02:30:24.549Z,10.58
2023-02-20T02:33:03.554Z,10.59
2023-02-20T02:35:58.677Z,10.58
2023-02-20T02:38:39.668Z,10.55
2023-02-20T02:41:33.700Z,10.53
2023-02-20T02:44:11.501Z,10.56
2023-02-20T02:46:56.072Z,10.58
2023-02-20T02:49:54.772Z,10.58
2023-02-20T02:52:41.972Z,10.58
2023-02-20T02:55:09.471Z,10.60
2023-02-20T02:57:36.223Z,10.65
2023-02-20T03:00:16.402Z,10.67
2023-02-20T03:02:53.470Z,10.70
2023-02-20T03:05:24.674Z,10.72
2023-02-20T03:07:56.269Z,10.74
2023-02-20T03:10:32.205Z,10.75
2023-02-20T03:13:04.772Z,10.77
2023-02-20T03:15:40.715Z,10.78
2023-02-20T03:18:31.757Z,10.78
2023-02-20T03:21:04.479Z,10.80
2023-02-20T03:23:36.192Z,10.81
2023-02-20T03:26:10.213Z,10.80
2023-02-20T03:28:41.746Z,10.82
2023-02-20T03:31:15.481Z,10.81
2023-02-20T03:34:06.366Z,10.82
2023-02-20T03:36:56.958Z,10.83
2023-02-20T03:39:47.922Z,10.83
2023-02-20T03:42:37.784Z,10.84
2023-02-20T03:45:07.575Z,10.85
2023-02-20T03:47:39.785Z,10.85
2023-02-20T03:50:29.612Z,10.86
2023-02-20T03:52:56.720Z,10.86
2023-02-20T03:55:24.659Z,10.86
2023-02-20T03:57:55.364Z,10.86
2023-02-20T04:00:31.205Z,10.85
2023-02-20T04:03:05.004Z,10.86
2023-02-20T04:05:37.284Z,10.85
2023-02-20T04:08:10.510Z,10.86
2023-02-20T04:10:44.050Z,10.86
2023-02-20T04:13:13.882Z,10.84
2023-02-20T04:15:41.438Z,10.83
2023-02-20T04:18:14.258Z,10.80
2023-02-20T04:20:40.890Z,10.78
2023-02-20T04:23:14.472Z,10.77
2023-02-20T04:25:47.199Z,10.74
2023-02-20T04:28:15.581Z,10.72
2023-02-20T04:30:42.756Z,10.70
2023-02-20T04:33:14.714Z,10.68
2023-02-20T04:35:42.402Z,10.68
2023-02-20T04:38:10.377Z,10.68
2023-02-20T04:40:37.223Z,10.70
2023-02-20T04:43:04.455Z,10.71
2023-02-20T04:45:31.141Z,10.73
2023-02-20T04:47:57.885Z,10.75
2023-02-20T04:50:35.258Z,10.76
2023-02-20T04:53:02.237Z,10.76
2023-02-20T04:55:29.180Z,10.75
2023-02-20T04:57:58.091Z,10.74
2023-02-20T05:00:26.506Z,10.75
2023-02-20T05:02:53.413Z,10.76
2023-02-20T05:05:21.726Z,10.77
2023-02-20T05:07:48.750Z,10.78
2023-02-20T05:10:18.019Z,10.79
2023-02-20T05:12:44.827Z,10.78
2023-02-20T05:15:11.903Z,10.79
2023-02-20T05:17:38.572Z,10.77
2023-02-20T05:20:06.584Z,10.78
2023-02-20T05:22:33.597Z,10.77
2023-02-20T05:25:00.699Z,10.72
2023-02-20T05:27:28.365Z,10.70
2023-02-20T05:29:57.337Z,10.71
2023-02-20T05:32:26.597Z,10.71
2023-02-20T05:34:54.024Z,10.74
2023-02-20T05:37:22.497Z,10.74
2023-02-20T05:39:49.372Z,10.75
2023-02-20T05:42:17.353Z,10.77
2023-02-20T05:44:44.246Z,10.78
2023-02-20T05:47:11.692Z,10.79
2023-02-20T05:49:38.598Z,10.79
2023-02-20T05:52:12.600Z,10.80
2023-02-20T05:54:40.739Z,10.79
2023-02-20T05:57:08.569Z,10.81
2023-02-20T05:59:35.341Z,10.81
2023-02-20T06:02:02.553Z,10.82
2023-02-20T06:04:29.882Z,10.82
2023-02-20T06:06:56.667Z,10.82
2023-02-20T06:09:23.533Z,10.81
2023-02-20T06:11:53.294Z,10.83
2023-02-20T06:14:21.594Z,10.83
2023-02-20T06:16:48.823Z,10.83
2023-02-20T06:19:22.453Z,10.82
2023-02-20T06:21:51.231Z,10.82
2023-02-20T06:24:18.350Z,10.83
2023-02-20T06:26:46.210Z,10.82
2023-02-20T06:29:15.672Z,10.81
2023-02-20T06:31:42.621Z,10.81
2023-02-20T06:34:10.725Z,10.82
2023-02-20T06:36:40.353Z,10.83
2023-02-20T06:39:09.059Z,10.82
2023-02-20T06:41:35.952Z,10.82
2023-02-20T06:44:03.447Z,10.81
2023-02-20T06:46:30.291Z,10.80
2023-02-20T06:48:59.113Z,10.79
2023-02-20T06:51:31.893Z,10.80
2023-02-20T06:53:58.969Z,10.80
2023-02-20T06:56:31.121Z,10.79
2023-02-20T06:58:58.897Z,10.79
2023-02-20T07:01:28.645Z,10.77
2023-02-20T07:03:56.651Z,10.77
2023-02-20T07:06:24.831Z,10.78
2023-02-20T07:08:52.243Z,10.79
2023-02-20T07:11:21.618Z,10.78
2023-02-20T07:13:48.342Z,10.78
2023-02-20T07:16:15.913Z,10.77
2023-02-20T07:18:42.932Z,10.77
2023-02-20T07:22:09.498Z,10.74
2023-02-20T07:24:41.829Z,10.74
2023-02-20T07:27:10.904Z,10.74
2023-02-20T07:29:40.941Z,10.74
2023-02-20T07:32:09.197Z,10.75
2023-02-20T07:34:35.932Z,10.77
2023-02-20T07:37:02.673Z,10.76
2023-02-20T07:40:29.386Z,10.78
2023-02-20T07:42:57.648Z,10.81
2023-02-20T07:45:24.778Z,10.82
2023-02-20T07:47:56.946Z,10.83
2023-02-20T07:50:26.708Z,10.84
2023-02-20T07:52:57.653Z,10.85
2023-02-20T07:55:26.296Z,10.87
2023-02-20T07:57:56.074Z,10.88
2023-02-20T08:00:24.394Z,10.89
2023-02-20T08:02:54.727Z,10.89
2023-02-20T08:05:24.637Z,10.91
2023-02-20T08:07:53.349Z,10.92
2023-02-20T08:10:23.673Z,10.96
2023-02-20T08:12:53.013Z,10.96
2023-02-20T08:15:22.067Z,10.98
2023-02-20T08:17:52.304Z,11.01
2023-02-20T08:20:21.976Z,11.01
2023-02-20T08:22:51.886Z,11.05
2023-02-20T08:25:19.836Z,11.07
2023-02-20T08:27:52.498Z,11.07
2023-02-20T08:30:27.404Z,11.09
2023-02-20T08:32:57.730Z,11.13
2023-02-20T08:35:28.593Z,11.16
2023-02-20T08:37:55.496Z,11.16
2023-02-20T08:40:25.143Z,11.21
2023-02-20T08:43:02.563Z,11.25
2023-02-20T08:45:31.271Z,11.28
2023-02-20T08:48:04.221Z,11.33
2023-02-20T08:50:32.905Z,11.36
2023-02-20T08:53:04.232Z,11.38
2023-02-20T08:55:30.970Z,11.41
2023-02-20T08:58:02.167Z,11.45
2023-02-20T09:00:30.812Z,11.50
2023-02-20T09:02:59.125Z,11.50
2023-02-20T09:05:28.804Z,11.54
2023-02-20T09:07:59.302Z,11.56
2023-02-20T09:10:29.453Z,11.56
2023-02-20T09:13:00.770Z,11.60
2023-02-20T09:15:28.095Z,11.60
2023-02-20T09:17:57.438Z,11.65
2023-02-20T09:20:24.784Z,11.69
2023-02-20T09:22:53.063Z,11.70
2023-02-20T09:25:21.380Z,11.72
2023-02-20T09:27:48.680Z,11.71
2023-02-20T09:30:19.998Z,11.72
2023-02-20T09:32:55.499Z,11.74
2023-02-20T09:35:27.709Z,11.75
2023-02-20T09:37:56.949Z,11.75
2023-02-20T09:40:30.905Z,11.73
2023-02-20T09:43:33.677Z,11.70
2023-02-20T09:46:09.050Z,11.73
2023-02-20T09:49:13.408Z,11.78
2023-02-20T09:51:46.747Z,11.81
2023-02-20T09:54:45.318Z,11.90
2023-02-20T09:57:22.478Z,11.99
2023-02-20T09:59:57.976Z,11.99
2023-02-20T10:02:32.713Z,12.03
2023-02-20T10:05:08.642Z,12.07
2023-02-20T10:07:40.557Z,12.09
2023-02-20T10:10:35.187Z,12.14
2023-02-20T10:13:16.536Z,12.20
2023-02-20T10:15:53.868Z,12.26
2023-02-20T10:18:58.240Z,12.28
2023-02-20T10:21:35.582Z,12.34
2023-02-20T10:24:32.971Z,12.39
2023-02-20T10:27:18.838Z,12.46
2023-02-20T10:29:47.144Z,12.48
2023-02-20T10:32:25.142Z,12.49
2023-02-20T10:35:04.323Z,12.51
2023-02-20T10:37:47.492Z,12.59
2023-02-20T10:40:22.539Z,12.67
2023-02-20T10:43:03.363Z,12.76
2023-02-20T10:45:52.375Z,12.73
2023-02-20T10:48:22.031Z,12.71
2023-02-20T10:51:03.639Z,12.71
2023-02-20T10:53:38.264Z,12.69
2023-02-20T10:56:18.052Z,12.71
2023-02-20T10:58:58.397Z,12.87
2023-02-20T11:01:27.109Z,12.89
2023-02-20T11:04:30.326Z,12.91
2023-02-20T11:07:04.439Z,12.93
2023-02-20T11:09:32.779Z,13.02
2023-02-20T11:12:01.089Z,13.15
2023-02-20T11:14:53.089Z,13.36
2023-02-20T11:17:24.778Z,13.48
2023-02-20T11:19:59.326Z,13.61
2023-02-20T11:22:46.619Z,13.74
2023-02-20T11:25:22.360Z,13.96
2023-02-20T11:27:55.120Z,13.97
2023-02-20T11:30:34.530Z,13.84
2023-02-20T11:33:15.408Z,13.76
2023-02-20T11:35:50.152Z,13.74
2023-02-20T11:38:24.068Z,13.84
2023-02-20T11:40:57.953Z,13.93
2023-02-20T11:43:29.314Z,13.93
2023-02-20T11:46:25.051Z,13.96
2023-02-20T11:48:54.724Z,13.93
2023-02-20T11:51:42.091Z,13.89
2023-02-20T11:54:15.403Z,13.94
2023-02-20T11:57:25.801Z,13.93
2023-02-20T12:00:15.807Z,13.92
2023-02-20T12:03:22.542Z,13.85
2023-02-20T12:05:50.493Z,13.89
2023-02-20T12:08:43.443Z,13.86
2023-02-20T12:11:17.794Z,13.98
2023-02-20T12:13:53.808Z,13.84
2023-02-20T12:16:48.961Z,13.80
2023-02-20T12:19:55.526Z,13.65
2023-02-20T12:22:35.445Z,13.63
2023-02-20T12:25:18.142Z,13.62
2023-02-20T12:27:52.060Z,13.62
2023-02-20T12:30:54.970Z,13.61
2023-02-20T12:33:41.108Z,13.54
2023-02-20T12:36:30.011Z,13.43
2023-02-20T12:39:25.235Z,13.37
2023-02-20T12:42:15.097Z,13.30
2023-02-20T12:45:04.947Z,13.26
2023-02-20T12:47:48.881Z,13.27
2023-02-20T12:50:29.778Z,13.32
2023-02-20T12:53:01.370Z,13.43
2023-02-20T12:56:01.367Z,13.52
2023-02-20T12:58:48.090Z,13.85
2023-02-20T13:01:30.783Z,14.00
2023-02-20T13:04:26.949Z,14.20
2023-02-20T13:07:03.087Z,14.18
2023-02-20T13:09:44.442Z,14.06
2023-02-20T13:12:16.734Z,13.96
2023-02-20T13:15:23.659Z,13.92
2023-02-20T13:18:10.455Z,13.82
2023-02-20T13:20:47.787Z,13.80
2023-02-20T13:23:18.061Z,13.72
2023-02-20T13:25:46.014Z,13.68
2023-02-20T13:28:14.722Z,13.65
2023-02-20T13:30:41.982Z,13.61
2023-02-20T13:33:25.390Z,13.64
2023-02-20T13:35:58.332Z,13.65
2023-02-20T13:38:31.014Z,13.62
2023-02-20T13:40:59.329Z,13.56
2023-02-20T13:43:36.752Z,13.49
2023-02-20T13:46:19.540Z,13.48
2023-02-20T13:48:49.300Z,13.43
2023-02-20T13:51:16.600Z,13.39
2023-02-20T13:54:16.663Z,13.37
2023-02-20T13:56:48.886Z,13.34
2023-02-20T13:59:23.627Z,13.34
2023-02-20T14:02:31.045Z,13.32
2023-02-20T14:05:06.504Z,13.35
2023-02-20T14:07:42.996Z,13.35
2023-02-20T14:10:32.540Z,13.37
2023-02-20T14:13:14.511Z,13.34
2023-02-20T14:16:02.266Z,13.33
2023-02-20T14:18:37.137Z,13.30
2023-02-20T14:21:19.466Z,13.30
2023-02-20T14:23:50.276Z,13.30
2023-02-20T14:26:32.571Z,13.30
2023-02-20T14:29:01.317Z,13.27
2023-02-20T14:31:35.746Z,13.30
2023-02-20T14:34:10.924Z,13.31
2023-02-20T14:37:04.319Z,13.34
2023-02-20T14:40:08.729Z,13.37
2023-02-20T14:42:42.019Z,13.49
2023-02-20T14:45:16.061Z,13.75
2023-02-20T14:48:02.866Z,13.98
2023-02-20T14:50:36.021Z,14.08
2023-02-20T14:53:22.936Z,13.94
2023-02-20T14:55:52.284Z,13.91
2023-02-20T14:58:24.998Z,14.02
2023-02-20T15:00:57.988Z,14.07
2023-02-20T15:03:33.711Z,14.14
2023-02-20T15:06:05.559Z,14.23
2023-02-20T15:08:39.287Z,14.31
2023-02-20T15:11:12.785Z,14.39
2023-02-20T15:13:46.945Z,14.39
2023-02-20T15:16:25.355Z,14.50
2023-02-20T15:18:55.585Z,14.43
2023-02-20T15:21:58.431Z,14.36
2023-02-20T15:24:25.313Z,14.22
2023-02-20T15:26:52.455Z,14.21
2023-02-20T15:29:19.078Z,14.27
2023-02-20T15:31:54.138Z,14.34
2023-02-20T15:34:27.119Z,14.25
2023-02-20T15:36:54.136Z,14.14
2023-02-20T15:39:21.185Z,14.07
2023-02-20T15:41:48.813Z,14.12
2023-02-20T15:44:16.428Z,14.04
2023-02-20T15:46:43.253Z,13.99
2023-02-20T15:49:19.244Z,13.92
2023-02-20T15:51:47.273Z,13.88
2023-02-20T15:54:17.792Z,13.78
2023-02-20T15:56:45.285Z,13.70
2023-02-20T15:59:12.607Z,13.57
2023-02-20T16:01:42.524Z,13.46
2023-02-20T16:04:10.977Z,13.40
2023-02-20T16:06:37.788Z,13.34
2023-02-20T16:09:04.674Z,13.34
2023-02-20T16:11:39.062Z,13.39
2023-02-20T16:14:06.491Z,13.43
2023-02-20T16:16:47.450Z,13.41
2023-02-20T16:19:17.638Z,13.43
2023-02-20T16:21:58.318Z,13.41
2023-02-20T16:24:26.364Z,13.36
2023-02-20T16:26:53.267Z,13.38
2023-02-20T16:29:23.987Z,13.34
2023-02-20T16:31:54.040Z,13.29
2023-02-20T16:34:23.004Z,13.29
2023-02-20T16:36:50.624Z,13.22
2023-02-20T16:39:26.344Z,13.16
2023-02-20T16:41:53.755Z,13.03
2023-02-20T16:44:43.434Z,12.92
2023-02-20T16:47:15.508Z,12.83
2023-02-20T16:49:42.304Z,12.75
2023-02-20T16:52:21.350Z,12.68
2023-02-20T16:54:52.344Z,12.62
2023-02-20T16:57:21.718Z,12.55
2023-02-20T16:59:48.455Z,12.51
2023-02-20T17:02:17.800Z,12.46
2023-02-20T17:04:45.191Z,12.45
2023-02-20T17:07:12.169Z,12.44
2023-02-20T17:09:44.334Z,12.40
2023-02-20T17:12:12.897Z,12.34
2023-02-20T17:14:39.741Z,12.29
2023-02-20T17:17:07.033Z,12.24
2023-02-20T17:19:36.454Z,12.21
2023-02-20T17:22:03.315Z,12.17
2023-02-20T17:24:30.022Z,12.12
2023-02-20T17:26:56.748Z,12.08
2023-02-20T17:29:23.626Z,12.04
2023-02-20T17:31:50.420Z,12.01
2023-02-20T17:34:17.164Z,11.98
2023-02-20T17:36:49.059Z,11.93
2023-02-20T17:39:21.756Z,11.89
2023-02-20T17:41:50.508Z,11.86
2023-02-20T17:44:19.969Z,11.84
2023-02-20T17:46:49.216Z,11.79
2023-02-20T17:49:18.884Z,11.76
2023-02-20T17:51:45.973Z,11.72
2023-02-20T17:54:14.322Z,11.69
2023-02-20T17:56:45.851Z,11.65
2023-02-20T17:59:12.694Z,11.63
2023-02-20T18:01:39.488Z,11.61
2023-02-20T18:04:06.468Z,11.58
2023-02-20T18:06:33.614Z,11.56
2023-02-20T18:09:00.981Z,11.53
2023-02-20T18:11:28.517Z,11.50
2023-02-20T18:13:56.206Z,11.48
2023-02-20T18:16:24.975Z,11.46
2023-02-20T18:18:51.958Z,11.41
2023-02-20T18:21:30.086Z,11.38
2023-02-20T18:23:57.617Z,11.36
2023-02-20T18:26:24.712Z,11.33
2023-02-20T18:28:51.505Z,11.33
2023-02-20T18:31:18.707Z,11.32
2023-02-20T18:33:45.875Z,11.32
2023-02-20T18:36:12.992Z,11.32
2023-02-20T18:38:39.930Z,11.31
2023-02-20T18:41:10.308Z,11.27
2023-02-20T18:43:36.967Z,11.24
2023-02-20T18:46:03.984Z,11.20
2023-02-20T18:48:30.832Z,11.17
2023-02-20T18:50:57.582Z,11.15
2023-02-20T18:53:24.244Z,11.12
2023-02-20T18:55:51.159Z,11.06
2023-02-20T18:58:18.002Z,11.02
2023-02-20T19:00:45.047Z,11.00
2023-02-20T19:03:11.881Z,10.98
2023-02-20T19:05:38.778Z,10.96
2023-02-20T19:09:05.341Z,10.94
2023-02-20T19:12:31.874Z,10.90
2023-02-20T19:15:58.419Z,10.89
2023-02-20T19:19:24.855Z,10.87
2023-02-20T19:26:34.030Z,10.78
2023-02-20T19:30:00.489Z,10.77
2023-02-20T19:33:27.000Z,10.71
2023-02-20T19:36:53.460Z,10.70
2023-02-20T19:44:20.659Z,10.63
2023-02-20T19:47:47.229Z,10.57
2023-02-20T19:51:13.710Z,10.52
2023-02-20T19:54:40.262Z,10.48
2023-02-20T19:57:09.921Z,10.45
2023-02-20T19:59:36.613Z,10.41
2023-02-20T20:02:03.726Z,10.38
2023-02-20T20:04:32.237Z,10.39
2023-02-20T20:07:00.388Z,10.37
2023-02-20T20:09:36.150Z,10.36
2023-02-20T20:12:05.642Z,10.34
2023-02-20T20:14:32.504Z,10.32
2023-02-20T20:16:59.427Z,10.29
2023-02-20T20:19:26.270Z,10.24
2023-02-20T20:21:53.095Z,10.21
2023-02-20T20:24:19.858Z,10.19
2023-02-20T20:26:46.751Z,10.19
2023-02-20T20:29:13.528Z,10.20
2023-02-20T20:31:41.753Z,10.20
2023-02-20T20:34:09.528Z,10.24
2023-02-20T20:36:36.652Z,10.27
2023-02-20T20:39:04.326Z,10.34
2023-02-20T20:41:44.103Z,10.39
2023-02-20T20:44:11.581Z,10.45
2023-02-20T20:46:38.691Z,10.52
2023-02-20T20:49:05.357Z,10.62
2023-02-20T20:51:32.134Z,10.68
2023-02-20T20:54:01.057Z,10.74
2023-02-20T20:56:27.812Z,10.81
2023-02-20T20:58:54.636Z,10.84
2023-02-20T21:01:21.505Z,10.86
2023-02-20T21:03:50.103Z,10.87
2023-02-20T21:06:16.830Z,10.87
2023-02-20T21:08:43.710Z,10.89
2023-02-20T21:11:13.174Z,10.88
2023-02-20T21:13:40.258Z,10.87
2023-02-20T21:16:07.286Z,10.90
2023-02-20T21:18:33.997Z,10.92
2023-02-20T21:21:00.727Z,10.94
2023-02-20T21:23:27.550Z,10.95
2023-02-20T21:25:54.334Z,10.97
2023-02-20T21:28:21.170Z,10.97
2023-02-20T21:30:48.096Z,11.00
2023-02-20T21:33:14.998Z,11.00
2023-02-20T21:35:41.775Z,11.02
2023-02-20T21:38:08.728Z,11.03
2023-02-20T21:40:35.487Z,11.04
2023-02-20T21:43:20.933Z,11.05
2023-02-20T21:45:49.853Z,11.08
2023-02-20T21:48:17.332Z,11.09
2023-02-20T21:50:44.327Z,11.10
2023-02-20T21:53:16.048Z,11.13
2023-02-20T21:55:44.916Z,11.15
2023-02-20T21:58:12.155Z,11.18
2023-02-20T22:00:38.824Z,11.17
2023-02-20T22:03:05.658Z,11.19
2023-02-20T22:05:32.435Z,11.19
2023-02-20T22:08:17.972Z,11.18
2023-02-20T22:11:03.221Z,11.18
2023-02-20T22:13:48.925Z,11.16
2023-02-20T22:16:39.969Z,11.17
2023-02-20T22:19:25.584Z,11.17
2023-02-20T22:22:11.115Z,11.17
2023-02-20T22:24:56.371Z,11.18
2023-02-20T22:27:41.856Z,11.19
2023-02-20T22:30:27.436Z,11.20
2023-02-20T22:33:12.979Z,11.23
2023-02-20T22:35:58.738Z,11.23
2023-02-20T22:38:44.309Z,11.21
2023-02-20T22:41:29.819Z,11.22
2023-02-20T22:44:15.305Z,11.23
2023-02-20T22:47:00.627Z,11.25
2023-02-20T22:49:46.445Z,11.24
2023-02-20T22:52:32.003Z,11.25
2023-02-20T22:55:17.547Z,11.26
2023-02-20T22:58:03.503Z,11.27
2023-02-20T23:00:48.846Z,11.28
2023-02-20T23:03:34.625Z,11.29
2023-02-20T23:06:20.306Z,11.28
2023-02-20T23:09:09.203Z,11.28
2023-02-20T23:11:55.788Z,11.29
2023-02-20T23:14:41.342Z,11.30
2023-02-20T23:17:35.537Z,11.32
2023-02-20T23:20:27.425Z,11.32
2023-02-20T23:23:12.836Z,11.31
2023-02-20T23:25:58.713Z,11.30
2023-02-20T23:28:44.173Z,11.31
2023-02-20T23:31:29.689Z,11.31
2023-02-20T23:34:15.351Z,11.31
2023-02-20T23:37:08.689Z,11.31
2023-02-20T23:39:54.203Z,11.29
2023-02-20T23:42:40.694Z,11.28
2023-02-20T23:45:28.180Z,11.27
2023-02-20T23:48:13.860Z,11.27
2023-02-20T23:50:58.983Z,11.28
2023-02-20T23:53:44.563Z,11.27
2023-02-20T23:56:30.101Z,11.27
2023-02-20T23:59:16.074Z,11.27
